Accueil
METAR-TAF:

METAR-TAF

Aéroports :

Kochi, Japon

latitude: 33-32N, longitude: 133-40E, altitude: 7 m

Observation

Le bulletin a été fait il y a 6 heures et 28 minutes, à 11:00 UTC
Vent 11 kt de nord
Température 14°C
Humidité 51%
Pression 1017 hPa
Visibilité 10 km ou plus
Quelques nuages à une hauteur de 2000 ft

METAR: RJOK 191100Z 36011KT 9999 FEW020 14/04 Q1017

Heure: 02:28 (17:28 UTC)

Prévision

Le bulletin a été fait il y a 6 heures et 18 minutes, à 11:10 UTC
Prévision valable du 19 à 12 UTC au 20 à 18 UTC
Vent 10 kt de nord
Visibilité 10 km ou plus
Quelques nuages à une hauteur de 3000 ft

TAF: RJOK 191110Z 1912/2018 35010KT 9999 FEW030

Observations et prévisions météorologiques de plus de 4000 aéroports (messages METAR et TAF).

Les stations disponibles sont représentées par des disques jaunes et rouges sur la carte.

Passer la souris dessus pour voir le nom de la station.

Cliquer dessus pour voir les observations et prévisions météorologiques.

Pour changer de carte: cliquez sur les boutons verts avec une croix noire pour zoomer, sur le bouton vert avec un tiret pour effectuer un zoom arrière, ou sur les flèches vertes pour les cartes adjacentes.


METAR-TAF: